sensor_id;sensor_type;location;lat;lon;timestamp;P1;durP1;ratioP1;P2;durP2;ratioP2
28174;SDS011;59417;44.788;10.334;2024-03-23T00:53:02;13.65;;;10.52;;
28174;SDS011;59417;44.788;10.334;2024-03-23T00:55:28;14.00;;;10.15;;
28174;SDS011;59417;44.788;10.334;2024-03-23T00:57:55;18.75;;;11.63;;
28174;SDS011;59417;44.788;10.334;2024-03-23T01:00:23;16.25;;;11.10;;
28174;SDS011;59417;44.788;10.334;2024-03-23T01:02:50;13.82;;;9.20;;
28174;SDS011;59417;44.788;10.334;2024-03-23T01:05:26;13.00;;;9.10;;
28174;SDS011;59417;44.788;10.334;2024-03-23T01:07:52;18.85;;;9.90;;
28174;SDS011;59417;44.788;10.334;2024-03-23T01:10:18;12.43;;;9.00;;
28174;SDS011;59417;44.788;10.334;2024-03-23T01:12:48;16.38;;;8.77;;
28174;SDS011;59417;44.788;10.334;2024-03-23T01:15:17;14.02;;;9.40;;
28174;SDS011;59417;44.788;10.334;2024-03-23T01:17:43;12.82;;;9.40;;
28174;SDS011;59417;44.788;10.334;2024-03-23T01:20:10;10.95;;;8.95;;
28174;SDS011;59417;44.788;10.334;2024-03-23T01:22:36;11.75;;;9.05;;
28174;SDS011;59417;44.788;10.334;2024-03-23T01:25:04;14.05;;;9.60;;
28174;SDS011;59417;44.788;10.334;2024-03-23T01:27:30;14.70;;;9.07;;
28174;SDS011;59417;44.788;10.334;2024-03-23T01:30:03;12.27;;;9.45;;
28174;SDS011;59417;44.788;10.334;2024-03-23T01:32:33;13.82;;;9.85;;
28174;SDS011;59417;44.788;10.334;2024-03-23T01:34:59;14.88;;;10.35;;
28174;SDS011;59417;44.788;10.334;2024-03-23T01:37:26;12.23;;;9.68;;
28174;SDS011;59417;44.788;10.334;2024-03-23T01:40:04;12.80;;;9.40;;
28174;SDS011;59417;44.788;10.334;2024-03-23T01:42:39;15.32;;;9.75;;
28174;SDS011;59417;44.788;10.334;2024-03-23T01:45:06;13.00;;;9.77;;
28174;SDS011;59417;44.788;10.334;2024-03-23T01:47:34;16.87;;;9.80;;
28174;SDS011;59417;44.788;10.334;2024-03-23T01:50:06;14.27;;;10.15;;
28174;SDS011;59417;44.788;10.334;2024-03-23T01:52:33;15.88;;;9.95;;
28174;SDS011;59417;44.788;10.334;2024-03-23T01:55:06;14.95;;;8.77;;
28174;SDS011;59417;44.788;10.334;2024-03-23T01:57:32;14.85;;;8.98;;
28174;SDS011;59417;44.788;10.334;2024-03-23T01:59:59;13.73;;;8.73;;
28174;SDS011;59417;44.788;10.334;2024-03-23T02:02:26;12.43;;;8.40;;
28174;SDS011;59417;44.788;10.334;2024-03-23T02:04:53;10.50;;;8.32;;
28174;SDS011;59417;44.788;10.334;2024-03-23T02:07:19;18.27;;;7.72;;
28174;SDS011;59417;44.788;10.334;2024-03-23T02:09:50;14.90;;;8.60;;
28174;SDS011;59417;44.788;10.334;2024-03-23T02:12:17;9.10;;;7.30;;
28174;SDS011;59417;44.788;10.334;2024-03-23T02:14:44;12.07;;;6.95;;
28174;SDS011;59417;44.788;10.334;2024-03-23T02:17:12;12.50;;;7.75;;
28174;SDS011;59417;44.788;10.334;2024-03-23T02:19:50;11.80;;;7.35;;
28174;SDS011;59417;44.788;10.334;2024-03-23T02:22:41;9.48;;;6.82;;
28174;SDS011;59417;44.788;10.334;2024-03-23T02:25:07;11.25;;;6.90;;
28174;SDS011;59417;44.788;10.334;2024-03-23T02:27:34;11.80;;;6.95;;
28174;SDS011;59417;44.788;10.334;2024-03-23T02:30:04;9.73;;;6.38;;
28174;SDS011;59417;44.788;10.334;2024-03-23T02:32:31;7.70;;;6.53;;
28174;SDS011;59417;44.788;10.334;2024-03-23T02:35:12;6.93;;;5.72;;
28174;SDS011;59417;44.788;10.334;2024-03-23T02:37:39;9.25;;;5.90;;
28174;SDS011;59417;44.788;10.334;2024-03-23T02:40:08;9.43;;;6.43;;
28174;SDS011;59417;44.788;10.334;2024-03-23T02:42:39;7.85;;;5.65;;
28174;SDS011;59417;44.788;10.334;2024-03-23T02:45:05;9.00;;;6.38;;
28174;SDS011;59417;44.788;10.334;2024-03-23T02:47:31;8.63;;;6.47;;
28174;SDS011;59417;44.788;10.334;2024-03-23T02:50:04;9.85;;;6.55;;
28174;SDS011;59417;44.788;10.334;2024-03-23T02:52:36;11.90;;;5.93;;
28174;SDS011;59417;44.788;10.334;2024-03-23T02:55:06;8.23;;;6.30;;
28174;SDS011;59417;44.788;10.334;2024-03-23T02:57:39;9.65;;;6.55;;
28174;SDS011;59417;44.788;10.334;2024-03-23T03:00:09;12.43;;;6.68;;
28174;SDS011;59417;44.788;10.334;2024-03-23T03:02:36;9.60;;;6.35;;
28174;SDS011;59417;44.788;10.334;2024-03-23T03:05:06;6.70;;;5.97;;
28174;SDS011;59417;44.788;10.334;2024-03-23T03:07:34;9.97;;;6.90;;
28174;SDS011;59417;44.788;10.334;2024-03-23T03:10:00;9.00;;;6.70;;
28174;SDS011;59417;44.788;10.334;2024-03-23T03:15:09;10.23;;;6.28;;
28174;SDS011;59417;44.788;10.334;2024-03-23T03:17:45;9.45;;;5.82;;
28174;SDS011;59417;44.788;10.334;2024-03-23T03:20:14;10.13;;;6.47;;
28174;SDS011;59417;44.788;10.334;2024-03-23T03:22:44;8.50;;;6.32;;
28174;SDS011;59417;44.788;10.334;2024-03-23T03:25:38;8.52;;;6.20;;
28174;SDS011;59417;44.788;10.334;2024-03-23T03:28:12;9.57;;;6.65;;
28174;SDS011;59417;44.788;10.334;2024-03-23T03:30:38;9.52;;;6.72;;
28174;SDS011;59417;44.788;10.334;2024-03-23T03:33:07;7.20;;;5.47;;
28174;SDS011;59417;44.788;10.334;2024-03-23T03:35:42;7.22;;;5.65;;
28174;SDS011;59417;44.788;10.334;2024-03-23T03:40:42;10.40;;;5.65;;
28174;SDS011;59417;44.788;10.334;2024-03-23T03:43:09;7.03;;;5.50;;
28174;SDS011;59417;44.788;10.334;2024-03-23T03:45:41;6.20;;;4.65;;
28174;SDS011;59417;44.788;10.334;2024-03-23T03:48:08;7.97;;;4.97;;
28174;SDS011;59417;44.788;10.334;2024-03-23T03:50:34;7.55;;;6.03;;
28174;SDS011;59417;44.788;10.334;2024-03-23T03:53:00;9.70;;;6.10;;
28174;SDS011;59417;44.788;10.334;2024-03-23T03:55:27;8.80;;;5.55;;
28174;SDS011;59417;44.788;10.334;2024-03-23T03:57:53;13.43;;;6.22;;
28174;SDS011;59417;44.788;10.334;2024-03-23T04:00:20;8.60;;;5.47;;
28174;SDS011;59417;44.788;10.334;2024-03-23T04:02:50;7.35;;;5.45;;
28174;SDS011;59417;44.788;10.334;2024-03-23T04:05:17;9.20;;;6.10;;
28174;SDS011;59417;44.788;10.334;2024-03-23T04:07:47;5.60;;;4.70;;
28174;SDS011;59417;44.788;10.334;2024-03-23T04:10:13;5.70;;;4.80;;
28174;SDS011;59417;44.788;10.334;2024-03-23T04:12:43;7.93;;;5.35;;
28174;SDS011;59417;44.788;10.334;2024-03-23T04:17:36;6.40;;;4.57;;
28174;SDS011;59417;44.788;10.334;2024-03-23T04:20:02;5.70;;;3.90;;
28174;SDS011;59417;44.788;10.334;2024-03-23T04:22:35;8.32;;;5.47;;
28174;SDS011;59417;44.788;10.334;2024-03-23T04:25:05;6.65;;;4.63;;
28174;SDS011;59417;44.788;10.334;2024-03-23T04:27:36;5.30;;;4.18;;
28174;SDS011;59417;44.788;10.334;2024-03-23T04:30:06;5.30;;;4.32;;
28174;SDS011;59417;44.788;10.334;2024-03-23T04:32:39;8.25;;;4.68;;
28174;SDS011;59417;44.788;10.334;2024-03-23T04:35:05;6.80;;;4.82;;
28174;SDS011;59417;44.788;10.334;2024-03-23T04:37:35;6.93;;;4.55;;
28174;SDS011;59417;44.788;10.334;2024-03-23T04:40:12;8.40;;;5.13;;
28174;SDS011;59417;44.788;10.334;2024-03-23T04:42:42;6.75;;;4.75;;
28174;SDS011;59417;44.788;10.334;2024-03-23T04:45:08;7.20;;;4.18;;
28174;SDS011;59417;44.788;10.334;2024-03-23T04:47:37;8.43;;;5.30;;
28174;SDS011;59417;44.788;10.334;2024-03-23T04:50:07;7.60;;;5.03;;
28174;SDS011;59417;44.788;10.334;2024-03-23T04:52:35;9.77;;;6.15;;
28174;SDS011;59417;44.788;10.334;2024-03-23T04:55:01;7.38;;;5.13;;
28174;SDS011;59417;44.788;10.334;2024-03-23T04:57:29;9.00;;;5.45;;
28174;SDS011;59417;44.788;10.334;2024-03-23T05:00:03;7.20;;;5.60;;
28174;SDS011;59417;44.788;10.334;2024-03-23T05:02:43;7.47;;;5.35;;
28174;SDS011;59417;44.788;10.334;2024-03-23T05:05:13;9.13;;;5.68;;
28174;SDS011;59417;44.788;10.334;2024-03-23T05:07:39;9.45;;;6.53;;
28174;SDS011;59417;44.788;10.334;2024-03-23T05:10:07;7.97;;;6.00;;
28174;SDS011;59417;44.788;10.334;2024-03-23T05:12:38;7.75;;;5.72;;
28174;SDS011;59417;44.788;10.334;2024-03-23T05:15:06;11.55;;;6.38;;
28174;SDS011;59417;44.788;10.334;2024-03-23T05:17:35;8.45;;;6.45;;
28174;SDS011;59417;44.788;10.334;2024-03-23T05:20:03;7.88;;;6.18;;
28174;SDS011;59417;44.788;10.334;2024-03-23T05:22:29;7.82;;;5.18;;
28174;SDS011;59417;44.788;10.334;2024-03-23T05:24:56;9.48;;;6.22;;
28174;SDS011;59417;44.788;10.334;2024-03-23T05:27:33;12.18;;;6.22;;
28174;SDS011;59417;44.788;10.334;2024-03-23T05:30:20;7.60;;;5.88;;
28174;SDS011;59417;44.788;10.334;2024-03-23T05:32:48;9.02;;;6.82;;
28174;SDS011;59417;44.788;10.334;2024-03-23T05:35:24;10.50;;;6.18;;
28174;SDS011;59417;44.788;10.334;2024-03-23T05:38:02;8.93;;;6.00;;
28174;SDS011;59417;44.788;10.334;2024-03-23T05:40:33;9.10;;;5.85;;
28174;SDS011;59417;44.788;10.334;2024-03-23T05:43:18;6.90;;;5.97;;
28174;SDS011;59417;44.788;10.334;2024-03-23T05:45:44;10.50;;;5.97;;
28174;SDS011;59417;44.788;10.334;2024-03-23T05:48:10;11.05;;;6.22;;
28174;SDS011;59417;44.788;10.334;2024-03-23T05:50:54;10.65;;;6.68;;
28174;SDS011;59417;44.788;10.334;2024-03-23T05:53:34;11.80;;;6.57;;
28174;SDS011;59417;44.788;10.334;2024-03-23T05:56:02;9.70;;;6.88;;
28174;SDS011;59417;44.788;10.334;2024-03-23T05:58:34;9.00;;;7.10;;
28174;SDS011;59417;44.788;10.334;2024-03-23T06:01:06;15.63;;;5.97;;
28174;SDS011;59417;44.788;10.334;2024-03-23T06:03:33;7.55;;;5.43;;
28174;SDS011;59417;44.788;10.334;2024-03-23T06:06:00;8.70;;;4.82;;
28174;SDS011;59417;44.788;10.334;2024-03-23T06:08:27;11.75;;;5.60;;
28174;SDS011;59417;44.788;10.334;2024-03-23T06:10:53;7.72;;;5.47;;
28174;SDS011;59417;44.788;10.334;2024-03-23T06:13:20;10.35;;;6.18;;
28174;SDS011;59417;44.788;10.334;2024-03-23T06:15:50;10.13;;;5.57;;
28174;SDS011;59417;44.788;10.334;2024-03-23T06:18:16;15.80;;;7.22;;
28174;SDS011;59417;44.788;10.334;2024-03-23T06:20:43;8.48;;;6.53;;
28174;SDS011;59417;44.788;10.334;2024-03-23T06:23:08;10.40;;;7.03;;
28174;SDS011;59417;44.788;10.334;2024-03-23T06:25:34;15.63;;;8.65;;
28174;SDS011;59417;44.788;10.334;2024-03-23T06:28:01;20.75;;;9.27;;
28174;SDS011;59417;44.788;10.334;2024-03-23T06:30:37;12.10;;;8.65;;
28174;SDS011;59417;44.788;10.334;2024-03-23T06:33:05;14.23;;;9.20;;
28174;SDS011;59417;44.788;10.334;2024-03-23T06:35:34;16.67;;;9.80;;
28174;SDS011;59417;44.788;10.334;2024-03-23T06:38:00;14.13;;;9.70;;
28174;SDS011;59417;44.788;10.334;2024-03-23T06:40:28;12.60;;;9.38;;
28174;SDS011;59417;44.788;10.334;2024-03-23T06:42:54;12.93;;;9.50;;
28174;SDS011;59417;44.788;10.334;2024-03-23T06:45:20;11.05;;;8.25;;
28174;SDS011;59417;44.788;10.334;2024-03-23T06:47:49;19.15;;;10.02;;
28174;SDS011;59417;44.788;10.334;2024-03-23T06:52:44;12.70;;;8.43;;
28174;SDS011;59417;44.788;10.334;2024-03-23T06:55:10;11.82;;;8.52;;
28174;SDS011;59417;44.788;10.334;2024-03-23T06:57:38;12.52;;;7.78;;
28174;SDS011;59417;44.788;10.334;2024-03-23T07:00:04;10.65;;;7.93;;
28174;SDS011;59417;44.788;10.334;2024-03-23T07:02:39;17.65;;;9.07;;
28174;SDS011;59417;44.788;10.334;2024-03-23T07:05:05;12.33;;;8.07;;
28174;SDS011;59417;44.788;10.334;2024-03-23T07:07:32;7.80;;;4.43;;
28174;SDS011;59417;44.788;10.334;2024-03-23T07:10:00;8.43;;;5.22;;
28174;SDS011;59417;44.788;10.334;2024-03-23T07:12:29;6.57;;;4.47;;
28174;SDS011;59417;44.788;10.334;2024-03-23T07:14:55;8.60;;;5.30;;
28174;SDS011;59417;44.788;10.334;2024-03-23T07:17:24;7.60;;;4.90;;
28174;SDS011;59417;44.788;10.334;2024-03-23T07:19:52;11.38;;;5.07;;
28174;SDS011;59417;44.788;10.334;2024-03-23T07:22:18;10.35;;;4.68;;
28174;SDS011;59417;44.788;10.334;2024-03-23T07:24:48;9.30;;;5.18;;
28174;SDS011;59417;44.788;10.334;2024-03-23T07:27:14;7.28;;;4.63;;
28174;SDS011;59417;44.788;10.334;2024-03-23T07:29:40;10.90;;;5.25;;
28174;SDS011;59417;44.788;10.334;2024-03-23T07:32:06;10.77;;;4.65;;
28174;SDS011;59417;44.788;10.334;2024-03-23T07:34:32;10.68;;;5.22;;
28174;SDS011;59417;44.788;10.334;2024-03-23T07:36:59;8.23;;;5.78;;
28174;SDS011;59417;44.788;10.334;2024-03-23T07:39:26;8.90;;;4.95;;
28174;SDS011;59417;44.788;10.334;2024-03-23T07:41:58;7.22;;;3.92;;
28174;SDS011;59417;44.788;10.334;2024-03-23T07:44:24;7.00;;;4.57;;
28174;SDS011;59417;44.788;10.334;2024-03-23T07:46:54;8.63;;;4.43;;
28174;SDS011;59417;44.788;10.334;2024-03-23T07:49:19;8.05;;;4.32;;
28174;SDS011;59417;44.788;10.334;2024-03-23T07:51:48;4.00;;;3.60;;
28174;SDS011;59417;44.788;10.334;2024-03-23T07:54:18;6.47;;;4.72;;
28174;SDS011;59417;44.788;10.334;2024-03-23T07:56:44;7.40;;;3.70;;
28174;SDS011;59417;44.788;10.334;2024-03-23T07:59:10;6.63;;;4.00;;
28174;SDS011;59417;44.788;10.334;2024-03-23T08:01:36;4.85;;;3.67;;
28174;SDS011;59417;44.788;10.334;2024-03-23T08:04:02;6.68;;;3.78;;
28174;SDS011;59417;44.788;10.334;2024-03-23T08:06:28;7.32;;;3.75;;
28174;SDS011;59417;44.788;10.334;2024-03-23T08:08:57;12.07;;;3.30;;
28174;SDS011;59417;44.788;10.334;2024-03-23T08:11:29;10.20;;;3.47;;
28174;SDS011;59417;44.788;10.334;2024-03-23T08:13:56;6.47;;;3.70;;
28174;SDS011;59417;44.788;10.334;2024-03-23T08:16:24;7.10;;;3.50;;
28174;SDS011;59417;44.788;10.334;2024-03-23T08:19:00;3.78;;;3.30;;
28174;SDS011;59417;44.788;10.334;2024-03-23T08:21:31;4.50;;;2.90;;
28174;SDS011;59417;44.788;10.334;2024-03-23T08:24:01;5.97;;;3.60;;
28174;SDS011;59417;44.788;10.334;2024-03-23T08:26:44;7.85;;;3.65;;
28174;SDS011;59417;44.788;10.334;2024-03-23T08:29:11;7.30;;;3.17;;
28174;SDS011;59417;44.788;10.334;2024-03-23T08:31:38;10.23;;;3.88;;
28174;SDS011;59417;44.788;10.334;2024-03-23T08:34:09;9.35;;;3.40;;
28174;SDS011;59417;44.788;10.334;2024-03-23T08:36:34;8.95;;;3.63;;
28174;SDS011;59417;44.788;10.334;2024-03-23T08:39:00;4.95;;;3.50;;
28174;SDS011;59417;44.788;10.334;2024-03-23T08:41:25;6.60;;;3.92;;
28174;SDS011;59417;44.788;10.334;2024-03-23T08:43:51;6.25;;;3.40;;
28174;SDS011;59417;44.788;10.334;2024-03-23T08:46:17;7.75;;;3.13;;
28174;SDS011;59417;44.788;10.334;2024-03-23T08:48:44;4.68;;;3.13;;
28174;SDS011;59417;44.788;10.334;2024-03-23T08:51:15;7.97;;;4.07;;
28174;SDS011;59417;44.788;10.334;2024-03-23T08:53:49;5.68;;;4.03;;
28174;SDS011;59417;44.788;10.334;2024-03-23T08:56:41;6.50;;;3.35;;
28174;SDS011;59417;44.788;10.334;2024-03-23T08:59:12;5.25;;;3.38;;
28174;SDS011;59417;44.788;10.334;2024-03-23T09:01:40;6.88;;;3.40;;
28174;SDS011;59417;44.788;10.334;2024-03-23T09:04:06;6.13;;;3.50;;
28174;SDS011;59417;44.788;10.334;2024-03-23T09:06:34;7.82;;;3.58;;
28174;SDS011;59417;44.788;10.334;2024-03-23T09:09:00;8.00;;;3.60;;
28174;SDS011;59417;44.788;10.334;2024-03-23T09:11:26;16.45;;;9.45;;
28174;SDS011;59417;44.788;10.334;2024-03-23T09:13:55;9.68;;;7.25;;
28174;SDS011;59417;44.788;10.334;2024-03-23T09:16:21;17.02;;;12.07;;
28174;SDS011;59417;44.788;10.334;2024-03-23T09:18:48;18.65;;;12.45;;
28174;SDS011;59417;44.788;10.334;2024-03-23T09:21:25;20.17;;;12.23;;
28174;SDS011;59417;44.788;10.334;2024-03-23T09:24:11;25.83;;;16.38;;
28174;SDS011;59417;44.788;10.334;2024-03-23T09:26:37;27.42;;;17.85;;
28174;SDS011;59417;44.788;10.334;2024-03-23T09:29:07;25.13;;;17.35;;
28174;SDS011;59417;44.788;10.334;2024-03-23T09:31:37;30.83;;;17.48;;
28174;SDS011;59417;44.788;10.334;2024-03-23T09:34:12;33.20;;;22.20;;
28174;SDS011;59417;44.788;10.334;2024-03-23T09:36:46;35.65;;;22.83;;
28174;SDS011;59417;44.788;10.334;2024-03-23T09:39:18;40.55;;;25.50;;
28174;SDS011;59417;44.788;10.334;2024-03-23T09:41:47;40.90;;;26.52;;
28174;SDS011;59417;44.788;10.334;2024-03-23T09:44:18;43.78;;;27.95;;
28174;SDS011;59417;44.788;10.334;2024-03-23T09:46:47;39.65;;;26.38;;
28174;SDS011;59417;44.788;10.334;2024-03-23T09:49:20;41.13;;;25.17;;
28174;SDS011;59417;44.788;10.334;2024-03-23T09:51:50;36.35;;;22.67;;
28174;SDS011;59417;44.788;10.334;2024-03-23T09:54:20;41.70;;;28.20;;
28174;SDS011;59417;44.788;10.334;2024-03-23T09:56:47;49.80;;;28.98;;
28174;SDS011;59417;44.788;10.334;2024-03-23T09:59:16;47.85;;;30.65;;
28174;SDS011;59417;44.788;10.334;2024-03-23T10:02:25;44.33;;;29.42;;
28174;SDS011;59417;44.788;10.334;2024-03-23T10:04:52;47.55;;;28.58;;
28174;SDS011;59417;44.788;10.334;2024-03-23T10:07:18;53.00;;;34.20;;
28174;SDS011;59417;44.788;10.334;2024-03-23T10:09:52;52.90;;;33.00;;
28174;SDS011;59417;44.788;10.334;2024-03-23T10:12:28;57.75;;;33.00;;
28174;SDS011;59417;44.788;10.334;2024-03-23T10:14:57;59.95;;;33.22;;
28174;SDS011;59417;44.788;10.334;2024-03-23T10:17:26;56.17;;;32.05;;
28174;SDS011;59417;44.788;10.334;2024-03-23T10:19:53;55.63;;;31.13;;
28174;SDS011;59417;44.788;10.334;2024-03-23T10:22:22;50.67;;;30.98;;
28174;SDS011;59417;44.788;10.334;2024-03-23T10:27:18;46.13;;;29.83;;
28174;SDS011;59417;44.788;10.334;2024-03-23T10:29:49;47.65;;;29.60;;
28174;SDS011;59417;44.788;10.334;2024-03-23T10:32:15;48.50;;;29.88;;
28174;SDS011;59417;44.788;10.334;2024-03-23T10:34:43;50.88;;;27.55;;
28174;SDS011;59417;44.788;10.334;2024-03-23T10:37:17;51.10;;;27.00;;
28174;SDS011;59417;44.788;10.334;2024-03-23T10:39:46;50.58;;;28.45;;
28174;SDS011;59417;44.788;10.334;2024-03-23T10:42:15;47.13;;;29.95;;
28174;SDS011;59417;44.788;10.334;2024-03-23T10:44:47;56.45;;;30.02;;
28174;SDS011;59417;44.788;10.334;2024-03-23T10:47:15;52.88;;;29.83;;
28174;SDS011;59417;44.788;10.334;2024-03-23T10:49:41;55.83;;;29.80;;
28174;SDS011;59417;44.788;10.334;2024-03-23T10:52:09;46.58;;;28.92;;
28174;SDS011;59417;44.788;10.334;2024-03-23T10:54:35;54.15;;;27.77;;
28174;SDS011;59417;44.788;10.334;2024-03-23T11:00:15;47.08;;;27.27;;
28174;SDS011;59417;44.788;10.334;2024-03-23T11:02:44;47.38;;;27.75;;
28174;SDS011;59417;44.788;10.334;2024-03-23T11:05:33;51.05;;;29.10;;
28174;SDS011;59417;44.788;10.334;2024-03-23T11:08:02;43.55;;;25.83;;
28174;SDS011;59417;44.788;10.334;2024-03-23T11:10:31;17.83;;;11.80;;
28174;SDS011;59417;44.788;10.334;2024-03-23T11:13:42;10.35;;;5.57;;
28174;SDS011;59417;44.788;10.334;2024-03-23T11:15:52;14.45;;;4.20;;
28174;SDS011;59417;44.788;10.334;2024-03-23T11:18:21;4.50;;;3.42;;
28174;SDS011;59417;44.788;10.334;2024-03-23T11:20:47;14.60;;;4.10;;
28174;SDS011;59417;44.788;10.334;2024-03-23T11:23:29;20.48;;;4.20;;
28174;SDS011;59417;44.788;10.334;2024-03-23T11:25:57;10.73;;;4.10;;
28174;SDS011;59417;44.788;10.334;2024-03-23T11:28:26;7.60;;;3.83;;
28174;SDS011;59417;44.788;10.334;2024-03-23T11:30:52;10.88;;;3.38;;
28174;SDS011;59417;44.788;10.334;2024-03-23T11:33:17;8.48;;;3.40;;
28174;SDS011;59417;44.788;10.334;2024-03-23T11:35:44;22.00;;;4.00;;
28174;SDS011;59417;44.788;10.334;2024-03-23T11:38:10;12.48;;;3.67;;
28174;SDS011;59417;44.788;10.334;2024-03-23T11:40:37;10.75;;;3.63;;
28174;SDS011;59417;44.788;10.334;2024-03-23T11:43:05;7.22;;;3.03;;
28174;SDS011;59417;44.788;10.334;2024-03-23T11:45:36;10.18;;;3.65;;
28174;SDS011;59417;44.788;10.334;2024-03-23T11:48:05;10.93;;;3.47;;
28174;SDS011;59417;44.788;10.334;2024-03-23T11:50:39;9.50;;;3.60;;
28174;SDS011;59417;44.788;10.334;2024-03-23T11:53:20;8.82;;;3.17;;
28174;SDS011;59417;44.788;10.334;2024-03-23T11:58:26;9.68;;;3.13;;
28174;SDS011;59417;44.788;10.334;2024-03-23T12:00:58;5.57;;;3.60;;
28174;SDS011;59417;44.788;10.334;2024-03-23T12:03:26;6.47;;;3.15;;
28174;SDS011;59417;44.788;10.334;2024-03-23T12:06:00;12.65;;;4.07;;
28174;SDS011;59417;44.788;10.334;2024-03-23T12:11:06;5.43;;;2.95;;
28174;SDS011;59417;44.788;10.334;2024-03-23T12:13:34;8.63;;;3.28;;
28174;SDS011;59417;44.788;10.334;2024-03-23T12:16:13;8.43;;;3.72;;
28174;SDS011;59417;44.788;10.334;2024-03-23T12:18:49;5.28;;;3.63;;
28174;SDS011;59417;44.788;10.334;2024-03-23T12:23:50;6.63;;;3.03;;
28174;SDS011;59417;44.788;10.334;2024-03-23T12:26:17;9.85;;;3.25;;
28174;SDS011;59417;44.788;10.334;2024-03-23T12:28:43;4.30;;;2.63;;
28174;SDS011;59417;44.788;10.334;2024-03-23T12:31:08;6.82;;;3.20;;
28174;SDS011;59417;44.788;10.334;2024-03-23T12:33:35;5.78;;;2.60;;
28174;SDS011;59417;44.788;10.334;2024-03-23T12:36:01;4.38;;;3.00;;
28174;SDS011;59417;44.788;10.334;2024-03-23T12:44:51;6.38;;;2.70;;
28174;SDS011;59417;44.788;10.334;2024-03-23T12:47:17;5.70;;;2.70;;
28174;SDS011;59417;44.788;10.334;2024-03-23T12:49:43;6.32;;;2.90;;
28174;SDS011;59417;44.788;10.334;2024-03-23T12:52:08;8.65;;;2.17;;
28174;SDS011;59417;44.788;10.334;2024-03-23T12:54:34;13.88;;;2.63;;
28174;SDS011;59417;44.788;10.334;2024-03-23T12:57:00;6.82;;;2.28;;
28174;SDS011;59417;44.788;10.334;2024-03-23T12:59:27;3.08;;;1.70;;
28174;SDS011;59417;44.788;10.334;2024-03-23T13:01:54;4.85;;;2.10;;
28174;SDS011;59417;44.788;10.334;2024-03-23T13:04:20;6.55;;;1.92;;
28174;SDS011;59417;44.788;10.334;2024-03-23T13:06:46;7.80;;;2.40;;
28174;SDS011;59417;44.788;10.334;2024-03-23T13:09:12;4.22;;;2.10;;
28174;SDS011;59417;44.788;10.334;2024-03-23T13:11:41;6.82;;;2.28;;
28174;SDS011;59417;44.788;10.334;2024-03-23T13:14:10;4.07;;;2.00;;
28174;SDS011;59417;44.788;10.334;2024-03-23T13:16:36;5.53;;;1.95;;
28174;SDS011;59417;44.788;10.334;2024-03-23T13:19:02;3.40;;;1.60;;
28174;SDS011;59417;44.788;10.334;2024-03-23T13:21:29;10.93;;;2.05;;
28174;SDS011;59417;44.788;10.334;2024-03-23T13:23:55;6.50;;;2.50;;
28174;SDS011;59417;44.788;10.334;2024-03-23T13:26:20;8.55;;;2.13;;
28174;SDS011;59417;44.788;10.334;2024-03-23T13:28:46;8.52;;;2.17;;
28174;SDS011;59417;44.788;10.334;2024-03-23T13:31:13;6.97;;;1.77;;
28174;SDS011;59417;44.788;10.334;2024-03-23T13:33:45;4.28;;;1.80;;
28174;SDS011;59417;44.788;10.334;2024-03-23T13:36:10;4.80;;;2.20;;
28174;SDS011;59417;44.788;10.334;2024-03-23T13:38:36;3.03;;;1.90;;
28174;SDS011;59417;44.788;10.334;2024-03-23T13:41:02;8.15;;;2.05;;
28174;SDS011;59417;44.788;10.334;2024-03-23T13:43:35;8.52;;;2.70;;
28174;SDS011;59417;44.788;10.334;2024-03-23T13:46:06;7.00;;;2.20;;
28174;SDS011;59417;44.788;10.334;2024-03-23T13:48:32;4.70;;;2.15;;
28174;SDS011;59417;44.788;10.334;2024-03-23T13:51:01;2.95;;;2.05;;
28174;SDS011;59417;44.788;10.334;2024-03-23T13:53:28;6.68;;;2.40;;
28174;SDS011;59417;44.788;10.334;2024-03-23T13:55:54;8.60;;;2.55;;
28174;SDS011;59417;44.788;10.334;2024-03-23T13:58:20;6.38;;;2.33;;
28174;SDS011;59417;44.788;10.334;2024-03-23T14:00:45;6.82;;;2.42;;
28174;SDS011;59417;44.788;10.334;2024-03-23T14:03:12;8.43;;;2.50;;
28174;SDS011;59417;44.788;10.334;2024-03-23T14:05:38;6.18;;;2.53;;
28174;SDS011;59417;44.788;10.334;2024-03-23T14:08:08;6.78;;;2.22;;
28174;SDS011;59417;44.788;10.334;2024-03-23T14:10:34;8.70;;;2.78;;
28174;SDS011;59417;44.788;10.334;2024-03-23T14:13:04;10.55;;;2.70;;
28174;SDS011;59417;44.788;10.334;2024-03-23T14:15:30;8.45;;;2.70;;
28174;SDS011;59417;44.788;10.334;2024-03-23T14:17:56;9.00;;;3.10;;
28174;SDS011;59417;44.788;10.334;2024-03-23T14:20:22;10.02;;;2.70;;
28174;SDS011;59417;44.788;10.334;2024-03-23T14:22:52;7.35;;;2.85;;
28174;SDS011;59417;44.788;10.334;2024-03-23T14:25:18;14.02;;;3.00;;
28174;SDS011;59417;44.788;10.334;2024-03-23T14:27:44;8.38;;;2.55;;
28174;SDS011;59417;44.788;10.334;2024-03-23T14:30:11;11.60;;;2.80;;
28174;SDS011;59417;44.788;10.334;2024-03-23T14:32:38;8.90;;;2.30;;
28174;SDS011;59417;44.788;10.334;2024-03-23T14:35:06;4.88;;;2.45;;
28174;SDS011;59417;44.788;10.334;2024-03-23T14:37:39;4.55;;;2.35;;
28174;SDS011;59417;44.788;10.334;2024-03-23T14:40:10;9.52;;;2.30;;
28174;SDS011;59417;44.788;10.334;2024-03-23T14:42:40;5.97;;;2.15;;
28174;SDS011;59417;44.788;10.334;2024-03-23T14:45:23;7.32;;;2.53;;
28174;SDS011;59417;44.788;10.334;2024-03-23T14:47:51;8.40;;;2.47;;
28174;SDS011;59417;44.788;10.334;2024-03-23T14:50:18;7.10;;;2.10;;
28174;SDS011;59417;44.788;10.334;2024-03-23T14:53:02;4.65;;;2.00;;
28174;SDS011;59417;44.788;10.334;2024-03-23T14:55:28;10.43;;;2.45;;
28174;SDS011;59417;44.788;10.334;2024-03-23T14:57:54;11.57;;;2.40;;
28174;SDS011;59417;44.788;10.334;2024-03-23T15:00:20;5.25;;;2.35;;
28174;SDS011;59417;44.788;10.334;2024-03-23T15:02:46;5.75;;;2.10;;
28174;SDS011;59417;44.788;10.334;2024-03-23T15:05:12;12.82;;;2.30;;
28174;SDS011;59417;44.788;10.334;2024-03-23T15:07:37;8.70;;;2.40;;
28174;SDS011;59417;44.788;10.334;2024-03-23T15:10:04;7.32;;;2.13;;
28174;SDS011;59417;44.788;10.334;2024-03-23T15:12:31;5.32;;;1.92;;
28174;SDS011;59417;44.788;10.334;2024-03-23T15:15:00;8.50;;;2.20;;
28174;SDS011;59417;44.788;10.334;2024-03-23T15:17:26;5.90;;;1.52;;
28174;SDS011;59417;44.788;10.334;2024-03-23T15:19:51;4.80;;;1.90;;
28174;SDS011;59417;44.788;10.334;2024-03-23T15:22:19;4.07;;;2.08;;
28174;SDS011;59417;44.788;10.334;2024-03-23T15:24:46;2.83;;;1.83;;
28174;SDS011;59417;44.788;10.334;2024-03-23T15:27:13;5.38;;;1.67;;
28174;SDS011;59417;44.788;10.334;2024-03-23T15:29:39;4.78;;;1.33;;
28174;SDS011;59417;44.788;10.334;2024-03-23T15:32:05;3.88;;;1.73;;
28174;SDS011;59417;44.788;10.334;2024-03-23T15:34:31;8.73;;;1.92;;
28174;SDS011;59417;44.788;10.334;2024-03-23T15:36:57;4.47;;;1.58;;
28174;SDS011;59417;44.788;10.334;2024-03-23T15:39:23;5.07;;;2.17;;
28174;SDS011;59417;44.788;10.334;2024-03-23T15:41:49;6.43;;;2.05;;
28174;SDS011;59417;44.788;10.334;2024-03-23T15:44:14;9.82;;;1.88;;
28174;SDS011;59417;44.788;10.334;2024-03-23T15:46:40;10.75;;;2.15;;
28174;SDS011;59417;44.788;10.334;2024-03-23T15:49:06;7.93;;;2.63;;
28174;SDS011;59417;44.788;10.334;2024-03-23T15:51:32;5.07;;;2.22;;
28174;SDS011;59417;44.788;10.334;2024-03-23T15:54:02;10.77;;;2.33;;
28174;SDS011;59417;44.788;10.334;2024-03-23T15:56:31;5.70;;;2.13;;
28174;SDS011;59417;44.788;10.334;2024-03-23T15:58:57;20.38;;;3.08;;